sensor_id;sensor_type;location;lat;lon;timestamp;pressure;altitude;pressure_sealevel;temperature;humidity
52291;BME280;39663;45.432;28.050;2023-01-31T00:00:08;100614.10;;;4.66;40.96
52291;BME280;39663;45.432;28.050;2023-01-31T00:00:40;100614.55;;;4.41;41.48
52291;BME280;39663;45.432;28.050;2023-01-31T00:01:13;100616.67;;;4.50;41.66
52291;BME280;39663;45.432;28.050;2023-01-31T00:01:46;100617.83;;;4.13;40.23
52291;BME280;39663;45.432;28.050;2023-01-31T00:02:17;100620.65;;;4.25;42.31
52291;BME280;39663;45.432;28.050;2023-01-31T00:02:49;100619.24;;;4.37;41.40
52291;BME280;39663;45.432;28.050;2023-01-31T00:03:21;100620.23;;;4.47;42.15
52291;BME280;39663;45.432;28.050;2023-01-31T00:03:53;100618.42;;;4.63;41.57
52291;BME280;39663;45.432;28.050;2023-01-31T00:04:25;100617.23;;;4.77;41.02
52291;BME280;39663;45.432;28.050;2023-01-31T00:04:58;100619.44;;;4.26;39.89
52291;BME280;39663;45.432;28.050;2023-01-31T00:05:29;100618.11;;;4.81;40.93
52291;BME280;39663;45.432;28.050;2023-01-31T00:06:18;100620.20;;;4.66;41.54
52291;BME280;39663;45.432;28.050;2023-01-31T00:06:50;100618.22;;;4.72;41.64
52291;BME280;39663;45.432;28.050;2023-01-31T00:07:22;100621.33;;;4.69;39.31
52291;BME280;39663;45.432;28.050;2023-01-31T00:07:53;100623.93;;;4.69;40.53
52291;BME280;39663;45.432;28.050;2023-01-31T00:08:25;100623.13;;;4.76;39.91
52291;BME280;39663;45.432;28.050;2023-01-31T00:08:58;100620.95;;;4.53;39.77
52291;BME280;39663;45.432;28.050;2023-01-31T00:09:30;100620.18;;;4.57;40.65
52291;BME280;39663;45.432;28.050;2023-01-31T00:10:02;100621.45;;;4.58;39.38
52291;BME280;39663;45.432;28.050;2023-01-31T00:10:35;100621.76;;;3.71;38.94
52291;BME280;39663;45.432;28.050;2023-01-31T00:11:07;100623.04;;;3.43;41.60
52291;BME280;39663;45.432;28.050;2023-01-31T00:11:38;100620.70;;;3.42;40.13
52291;BME280;39663;45.432;28.050;2023-01-31T00:12:10;100617.70;;;3.62;40.13
52291;BME280;39663;45.432;28.050;2023-01-31T00:12:42;100617.46;;;3.61;40.37
52291;BME280;39663;45.432;28.050;2023-01-31T00:13:13;100617.43;;;4.07;43.26
52291;BME280;39663;45.432;28.050;2023-01-31T00:13:45;100617.24;;;4.11;41.81
52291;BME280;39663;45.432;28.050;2023-01-31T00:14:19;100619.24;;;3.66;40.79
52291;BME280;39663;45.432;28.050;2023-01-31T00:14:51;100616.54;;;4.01;42.71
52291;BME280;39663;45.432;28.050;2023-01-31T00:15:22;100615.25;;;4.00;40.19
52291;BME280;39663;45.432;28.050;2023-01-31T00:15:55;100615.55;;;4.30;42.37
52291;BME280;39663;45.432;28.050;2023-01-31T00:16:27;100614.47;;;4.01;39.72
52291;BME280;39663;45.432;28.050;2023-01-31T00:16:59;100616.23;;;4.01;43.05
52291;BME280;39663;45.432;28.050;2023-01-31T00:17:30;100618.49;;;4.32;41.25
52291;BME280;39663;45.432;28.050;2023-01-31T00:18:02;100618.94;;;4.20;40.95
52291;BME280;39663;45.432;28.050;2023-01-31T00:18:34;100617.44;;;4.13;41.63
52291;BME280;39663;45.432;28.050;2023-01-31T00:19:06;100616.27;;;4.59;40.27
52291;BME280;39663;45.432;28.050;2023-01-31T00:19:37;100620.29;;;4.24;41.79
52291;BME280;39663;45.432;28.050;2023-01-31T00:20:10;100615.96;;;4.27;41.96
52291;BME280;39663;45.432;28.050;2023-01-31T00:20:42;100615.53;;;4.34;42.70
52291;BME280;39663;45.432;28.050;2023-01-31T00:21:15;100617.22;;;3.93;39.77
52291;BME280;39663;45.432;28.050;2023-01-31T00:21:47;100615.32;;;3.79;42.88
52291;BME280;39663;45.432;28.050;2023-01-31T00:22:19;100617.24;;;3.95;40.62
52291;BME280;39663;45.432;28.050;2023-01-31T00:22:50;100612.76;;;3.77;39.98
52291;BME280;39663;45.432;28.050;2023-01-31T00:23:22;100615.01;;;3.79;41.81
52291;BME280;39663;45.432;28.050;2023-01-31T00:23:55;100615.68;;;3.37;43.04
52291;BME280;39663;45.432;28.050;2023-01-31T00:24:26;100617.32;;;3.63;42.96
52291;BME280;39663;45.432;28.050;2023-01-31T00:24:58;100618.50;;;3.61;43.27
52291;BME280;39663;45.432;28.050;2023-01-31T00:25:30;100620.40;;;3.94;42.59
52291;BME280;39663;45.432;28.050;2023-01-31T00:26:09;100618.66;;;3.93;40.79
52291;BME280;39663;45.432;28.050;2023-01-31T00:26:41;100622.84;;;3.46;44.96
52291;BME280;39663;45.432;28.050;2023-01-31T00:27:13;100623.29;;;3.89;43.58
52291;BME280;39663;45.432;28.050;2023-01-31T00:27:44;100623.49;;;3.85;40.37
52291;BME280;39663;45.432;28.050;2023-01-31T00:28:16;100623.18;;;3.74;42.14
52291;BME280;39663;45.432;28.050;2023-01-31T00:28:49;100623.75;;;3.05;40.71
52291;BME280;39663;45.432;28.050;2023-01-31T00:29:22;100628.89;;;2.89;41.36
52291;BME280;39663;45.432;28.050;2023-01-31T00:29:54;100628.09;;;3.34;41.97
52291;BME280;39663;45.432;28.050;2023-01-31T00:30:25;100627.82;;;3.12;42.53
52291;BME280;39663;45.432;28.050;2023-01-31T00:30:58;100630.99;;;3.18;41.40
52291;BME280;39663;45.432;28.050;2023-01-31T00:31:31;100626.76;;;3.10;43.06
52291;BME280;39663;45.432;28.050;2023-01-31T00:32:03;100627.32;;;1.86;42.19
52291;BME280;39663;45.432;28.050;2023-01-31T00:32:35;100625.47;;;2.51;43.58
52291;BME280;39663;45.432;28.050;2023-01-31T00:33:06;100624.90;;;2.78;43.14
52291;BME280;39663;45.432;28.050;2023-01-31T00:33:40;100624.25;;;3.04;45.93
52291;BME280;39663;45.432;28.050;2023-01-31T00:34:12;100629.19;;;3.35;45.50
52291;BME280;39663;45.432;28.050;2023-01-31T00:34:43;100625.64;;;3.64;42.96
52291;BME280;39663;45.432;28.050;2023-01-31T00:35:15;100624.31;;;3.63;44.36
52291;BME280;39663;45.432;28.050;2023-01-31T00:35:47;100620.79;;;3.67;42.60
52291;BME280;39663;45.432;28.050;2023-01-31T00:36:20;100621.24;;;3.87;44.42
52291;BME280;39663;45.432;28.050;2023-01-31T00:36:52;100620.03;;;4.31;44.41
52291;BME280;39663;45.432;28.050;2023-01-31T00:37:23;100624.95;;;4.48;44.88
52291;BME280;39663;45.432;28.050;2023-01-31T00:37:55;100624.92;;;4.15;42.51
52291;BME280;39663;45.432;28.050;2023-01-31T00:38:27;100623.02;;;4.40;44.24
52291;BME280;39663;45.432;28.050;2023-01-31T00:39:00;100619.15;;;4.52;43.78
52291;BME280;39663;45.432;28.050;2023-01-31T00:39:32;100619.61;;;4.63;44.01
52291;BME280;39663;45.432;28.050;2023-01-31T00:40:05;100622.39;;;4.58;43.85
52291;BME280;39663;45.432;28.050;2023-01-31T00:40:37;100620.91;;;4.81;43.34
52291;BME280;39663;45.432;28.050;2023-01-31T00:41:09;100619.08;;;4.43;40.48
52291;BME280;39663;45.432;28.050;2023-01-31T00:41:40;100624.39;;;4.72;43.83
52291;BME280;39663;45.432;28.050;2023-01-31T00:42:12;100616.94;;;4.16;40.23
52291;BME280;39663;45.432;28.050;2023-01-31T00:42:44;100621.93;;;4.40;41.12
52291;BME280;39663;45.432;28.050;2023-01-31T00:43:16;100623.97;;;4.20;42.36
52291;BME280;39663;45.432;28.050;2023-01-31T00:43:47;100623.21;;;3.92;41.35
52291;BME280;39663;45.432;28.050;2023-01-31T00:44:19;100623.50;;;3.33;40.95
52291;BME280;39663;45.432;28.050;2023-01-31T00:44:51;100623.44;;;3.43;41.12
52291;BME280;39663;45.432;28.050;2023-01-31T00:45:22;100622.61;;;2.57;42.12
52291;BME280;39663;45.432;28.050;2023-01-31T00:45:54;100626.12;;;2.61;43.32
52291;BME280;39663;45.432;28.050;2023-01-31T00:46:26;100625.86;;;3.05;44.07
52291;BME280;39663;45.432;28.050;2023-01-31T00:46:58;100627.13;;;3.16;44.27
52291;BME280;39663;45.432;28.050;2023-01-31T00:47:29;100623.13;;;3.29;44.76
52291;BME280;39663;45.432;28.050;2023-01-31T00:48:01;100620.69;;;3.57;44.36
52291;BME280;39663;45.432;28.050;2023-01-31T00:48:33;100619.80;;;3.63;42.85
52291;BME280;39663;45.432;28.050;2023-01-31T00:49:05;100621.37;;;3.81;45.36
52291;BME280;39663;45.432;28.050;2023-01-31T00:49:36;100622.90;;;4.16;44.41
52291;BME280;39663;45.432;28.050;2023-01-31T00:50:13;100621.47;;;4.05;45.47
52291;BME280;39663;45.432;28.050;2023-01-31T00:50:45;100617.05;;;4.49;43.42
52291;BME280;39663;45.432;28.050;2023-01-31T00:51:18;100617.85;;;4.19;43.41
52291;BME280;39663;45.432;28.050;2023-01-31T00:51:50;100618.74;;;4.33;43.95
52291;BME280;39663;45.432;28.050;2023-01-31T00:52:21;100617.96;;;4.50;40.10
52291;BME280;39663;45.432;28.050;2023-01-31T00:52:53;100617.65;;;4.22;42.70
52291;BME280;39663;45.432;28.050;2023-01-31T00:53:24;100619.62;;;3.76;40.25
52291;BME280;39663;45.432;28.050;2023-01-31T00:53:56;100621.95;;;3.96;44.21
52291;BME280;39663;45.432;28.050;2023-01-31T00:54:28;100620.95;;;4.32;41.92
52291;BME280;39663;45.432;28.050;2023-01-31T00:54:59;100623.48;;;4.30;44.19
52291;BME280;39663;45.432;28.050;2023-01-31T00:55:31;100622.97;;;4.04;41.29
52291;BME280;39663;45.432;28.050;2023-01-31T00:56:05;100626.12;;;4.20;42.48
52291;BME280;39663;45.432;28.050;2023-01-31T00:56:36;100631.62;;;3.81;40.55
52291;BME280;39663;45.432;28.050;2023-01-31T00:57:08;100632.76;;;3.60;42.04
52291;BME280;39663;45.432;28.050;2023-01-31T00:57:40;100629.79;;;3.84;42.60
52291;BME280;39663;45.432;28.050;2023-01-31T00:58:11;100628.65;;;3.76;44.88
52291;BME280;39663;45.432;28.050;2023-01-31T00:58:43;100623.88;;;4.13;42.66
52291;BME280;39663;45.432;28.050;2023-01-31T01:06:39;100632.77;;;3.86;44.30
52291;BME280;39663;45.432;28.050;2023-01-31T01:07:10;100631.90;;;3.89;42.54
52291;BME280;39663;45.432;28.050;2023-01-31T01:07:42;100629.34;;;3.99;43.50
52291;BME280;39663;45.432;28.050;2023-01-31T01:08:13;100626.79;;;3.38;41.64
52291;BME280;39663;45.432;28.050;2023-01-31T01:08:45;100629.17;;;2.99;41.41
52291;BME280;39663;45.432;28.050;2023-01-31T01:09:17;100630.25;;;2.80;43.06
52291;BME280;39663;45.432;28.050;2023-01-31T01:09:48;100633.31;;;3.53;42.87
52291;BME280;39663;45.432;28.050;2023-01-31T01:10:20;100636.68;;;3.27;44.53
52291;BME280;39663;45.432;28.050;2023-01-31T01:10:52;100633.58;;;2.71;41.69
52291;BME280;39663;45.432;28.050;2023-01-31T01:11:27;100632.81;;;3.38;41.40
52291;BME280;39663;45.432;28.050;2023-01-31T01:11:58;100628.71;;;2.85;42.38
52291;BME280;39663;45.432;28.050;2023-01-31T01:12:30;100632.06;;;3.07;43.88
52291;BME280;39663;45.432;28.050;2023-01-31T01:13:02;100630.94;;;3.12;41.70
52291;BME280;39663;45.432;28.050;2023-01-31T01:13:33;100630.65;;;3.17;44.32
52291;BME280;39663;45.432;28.050;2023-01-31T01:14:05;100630.11;;;3.54;44.35
52291;BME280;39663;45.432;28.050;2023-01-31T01:14:36;100629.55;;;3.60;44.52
52291;BME280;39663;45.432;28.050;2023-01-31T01:15:08;100630.32;;;3.52;45.84
52291;BME280;39663;45.432;28.050;2023-01-31T01:15:40;100630.15;;;3.35;41.83
52291;BME280;39663;45.432;28.050;2023-01-31T01:16:14;100632.79;;;3.15;42.74
52291;BME280;39663;45.432;28.050;2023-01-31T01:16:46;100628.81;;;2.31;41.62
52291;BME280;39663;45.432;28.050;2023-01-31T01:17:18;100629.12;;;2.67;44.22
52291;BME280;39663;45.432;28.050;2023-01-31T01:17:49;100627.95;;;1.85;43.24
52291;BME280;39663;45.432;28.050;2023-01-31T01:18:21;100632.08;;;2.12;45.13
52291;BME280;39663;45.432;28.050;2023-01-31T01:18:52;100630.30;;;2.54;44.59
52291;BME280;39663;45.432;28.050;2023-01-31T01:19:24;100629.03;;;2.65;45.06
52291;BME280;39663;45.432;28.050;2023-01-31T01:19:55;100629.78;;;3.10;45.49
52291;BME280;39663;45.432;28.050;2023-01-31T01:20:27;100629.71;;;3.32;43.28
52291;BME280;39663;45.432;28.050;2023-01-31T01:21:05;100629.43;;;3.33;43.49
52291;BME280;39663;45.432;28.050;2023-01-31T01:21:36;100626.43;;;3.13;41.98
52291;BME280;39663;45.432;28.050;2023-01-31T01:22:08;100627.22;;;2.98;42.85
52291;BME280;39663;45.432;28.050;2023-01-31T01:22:39;100629.78;;;2.41;44.20
52291;BME280;39663;45.432;28.050;2023-01-31T01:23:11;100630.03;;;1.90;42.89
52291;BME280;39663;45.432;28.050;2023-01-31T01:23:43;100630.88;;;1.66;43.77
52291;BME280;39663;45.432;28.050;2023-01-31T01:24:16;100628.58;;;1.73;43.37
52291;BME280;39663;45.432;28.050;2023-01-31T01:24:48;100629.30;;;1.97;43.98
52291;BME280;39663;45.432;28.050;2023-01-31T01:25:20;100628.01;;;2.17;43.21
52291;BME280;39663;45.432;28.050;2023-01-31T01:25:51;100629.47;;;2.01;43.10
52291;BME280;39663;45.432;28.050;2023-01-31T01:26:24;100625.02;;;2.34;42.44
52291;BME280;39663;45.432;28.050;2023-01-31T01:26:57;100624.09;;;2.46;42.53
52291;BME280;39663;45.432;28.050;2023-01-31T01:27:28;100623.31;;;2.26;42.81
52291;BME280;39663;45.432;28.050;2023-01-31T01:28:00;100624.21;;;2.58;42.56
52291;BME280;39663;45.432;28.050;2023-01-31T01:28:32;100626.34;;;1.94;43.68
52291;BME280;39663;45.432;28.050;2023-01-31T01:29:04;100626.92;;;0.85;44.75
52291;BME280;39663;45.432;28.050;2023-01-31T01:29:36;100632.26;;;0.11;46.39
52291;BME280;39663;45.432;28.050;2023-01-31T01:30:09;100634.92;;;-0.20;47.29
52291;BME280;39663;45.432;28.050;2023-01-31T01:30:40;100632.40;;;-0.53;47.86
52291;BME280;39663;45.432;28.050;2023-01-31T01:31:14;100630.04;;;0.91;46.73
52291;BME280;39663;45.432;28.050;2023-01-31T01:31:45;100627.81;;;1.06;45.36
52291;BME280;39663;45.432;28.050;2023-01-31T01:32:17;100628.58;;;1.32;47.15
52291;BME280;39663;45.432;28.050;2023-01-31T01:32:48;100627.95;;;1.37;46.39
52291;BME280;39663;45.432;28.050;2023-01-31T01:33:20;100628.32;;;1.50;46.46
52291;BME280;39663;45.432;28.050;2023-01-31T01:33:52;100626.64;;;1.58;46.23
52291;BME280;39663;45.432;28.050;2023-01-31T01:34:23;100629.09;;;1.85;46.71
52291;BME280;39663;45.432;28.050;2023-01-31T01:34:54;100626.95;;;2.29;47.39
52291;BME280;39663;45.432;28.050;2023-01-31T01:35:26;100626.84;;;2.45;45.21
52291;BME280;39663;45.432;28.050;2023-01-31T01:36:00;100627.88;;;2.62;45.62
52291;BME280;39663;45.432;28.050;2023-01-31T01:36:33;100626.88;;;2.34;47.68
52291;BME280;39663;45.432;28.050;2023-01-31T01:37:07;100622.76;;;3.09;45.55
52291;BME280;39663;45.432;28.050;2023-01-31T01:37:38;100621.35;;;2.87;45.06
52291;BME280;39663;45.432;28.050;2023-01-31T01:38:10;100619.72;;;3.06;43.71
52291;BME280;39663;45.432;28.050;2023-01-31T01:38:42;100618.98;;;3.18;43.10
52291;BME280;39663;45.432;28.050;2023-01-31T01:39:15;100618.63;;;2.75;44.55
52291;BME280;39663;45.432;28.050;2023-01-31T01:39:47;100619.15;;;2.69;42.01
52291;BME280;39663;45.432;28.050;2023-01-31T01:40:19;100618.96;;;2.03;43.18
52291;BME280;39663;45.432;28.050;2023-01-31T01:40:50;100620.87;;;1.52;43.63
52291;BME280;39663;45.432;28.050;2023-01-31T01:41:22;100619.25;;;1.24;44.40
52291;BME280;39663;45.432;28.050;2023-01-31T01:41:54;100621.07;;;2.21;46.46
52291;BME280;39663;45.432;28.050;2023-01-31T01:42:26;100621.65;;;2.42;45.58
52291;BME280;39663;45.432;28.050;2023-01-31T01:43:03;100621.15;;;2.65;45.67
52291;BME280;39663;45.432;28.050;2023-01-31T01:43:44;100620.57;;;2.79;44.20
52291;BME280;39663;45.432;28.050;2023-01-31T01:44:54;100619.61;;;3.14;44.44
52291;BME280;39663;45.432;28.050;2023-01-31T01:45:26;100623.37;;;3.33;43.86
52291;BME280;39663;45.432;28.050;2023-01-31T01:45:57;100623.59;;;3.29;44.94
52291;BME280;39663;45.432;28.050;2023-01-31T01:46:31;100622.72;;;3.64;44.70
52291;BME280;39663;45.432;28.050;2023-01-31T01:47:06;100623.36;;;3.34;43.04
52291;BME280;39663;45.432;28.050;2023-01-31T01:47:46;100626.30;;;3.88;43.20
52291;BME280;39663;45.432;28.050;2023-01-31T01:48:19;100624.47;;;3.44;40.68
52291;BME280;39663;45.432;28.050;2023-01-31T01:48:55;100625.20;;;3.54;43.10
52291;BME280;39663;45.432;28.050;2023-01-31T01:49:32;100623.96;;;3.68;40.98
52291;BME280;39663;45.432;28.050;2023-01-31T01:50:11;100622.67;;;3.61;40.16
52291;BME280;39663;45.432;28.050;2023-01-31T01:50:46;100625.66;;;3.13;41.90
52291;BME280;39663;45.432;28.050;2023-01-31T01:51:19;100625.46;;;3.36;43.19
52291;BME280;39663;45.432;28.050;2023-01-31T01:51:52;100625.24;;;3.24;41.28
52291;BME280;39663;45.432;28.050;2023-01-31T01:52:26;100623.45;;;3.00;40.70
52291;BME280;39663;45.432;28.050;2023-01-31T01:53:01;100625.12;;;3.40;42.88
52291;BME280;39663;45.432;28.050;2023-01-31T01:53:39;100628.25;;;3.47;43.89
52291;BME280;39663;45.432;28.050;2023-01-31T01:54:14;100626.50;;;3.66;43.09
52291;BME280;39663;45.432;28.050;2023-01-31T01:54:51;100627.03;;;3.69;40.31
52291;BME280;39663;45.432;28.050;2023-01-31T01:55:29;100625.07;;;3.46;40.32
52291;BME280;39663;45.432;28.050;2023-01-31T01:56:07;100625.46;;;3.71;41.15
52291;BME280;39663;45.432;28.050;2023-01-31T01:56:42;100621.74;;;3.52;41.60
52291;BME280;39663;45.432;28.050;2023-01-31T01:57:19;100625.40;;;3.28;40.61
52291;BME280;39663;45.432;28.050;2023-01-31T01:57:57;100628.14;;;2.74;42.21
52291;BME280;39663;45.432;28.050;2023-01-31T01:58:38;100628.18;;;3.00;41.76
52291;BME280;39663;45.432;28.050;2023-01-31T01:59:15;100625.59;;;3.03;42.52
52291;BME280;39663;45.432;28.050;2023-01-31T01:59:51;100626.30;;;3.19;43.32
52291;BME280;39663;45.432;28.050;2023-01-31T02:00:28;100627.28;;;3.38;42.70
52291;BME280;39663;45.432;28.050;2023-01-31T02:01:03;100627.94;;;3.25;41.88
52291;BME280;39663;45.432;28.050;2023-01-31T02:01:36;100627.38;;;2.21;41.30
52291;BME280;39663;45.432;28.050;2023-01-31T02:02:08;100627.10;;;2.55;43.82
52291;BME280;39663;45.432;28.050;2023-01-31T02:02:41;100627.44;;;3.03;44.04
52291;BME280;39663;45.432;28.050;2023-01-31T02:03:13;100630.32;;;3.22;43.92
52291;BME280;39663;45.432;28.050;2023-01-31T02:03:45;100628.18;;;3.35;42.01
52291;BME280;39663;45.432;28.050;2023-01-31T02:04:21;100627.35;;;3.51;42.06
52291;BME280;39663;45.432;28.050;2023-01-31T02:04:54;100628.94;;;3.59;43.38
52291;BME280;39663;45.432;28.050;2023-01-31T02:05:29;100627.61;;;3.52;41.24
52291;BME280;39663;45.432;28.050;2023-01-31T02:06:03;100626.58;;;3.33;40.88
52291;BME280;39663;45.432;28.050;2023-01-31T02:06:35;100627.75;;;3.39;41.30
52291;BME280;39663;45.432;28.050;2023-01-31T02:07:07;100626.29;;;3.37;40.00
52291;BME280;39663;45.432;28.050;2023-01-31T02:07:39;100626.13;;;3.53;40.56
52291;BME280;39663;45.432;28.050;2023-01-31T02:08:12;100624.53;;;3.62;42.53
52291;BME280;39663;45.432;28.050;2023-01-31T02:08:44;100622.95;;;3.61;42.78
52291;BME280;39663;45.432;28.050;2023-01-31T02:09:21;100622.50;;;2.99;40.39
52291;BME280;39663;45.432;28.050;2023-01-31T02:10:00;100620.99;;;2.80;41.35
52291;BME280;39663;45.432;28.050;2023-01-31T02:10:38;100620.91;;;3.02;40.70
52291;BME280;39663;45.432;28.050;2023-01-31T02:11:22;100622.91;;;3.13;40.83
52291;BME280;39663;45.432;28.050;2023-01-31T02:11:54;100622.70;;;2.61;42.67
52291;BME280;39663;45.432;28.050;2023-01-31T02:12:25;100624.04;;;2.07;41.81
52291;BME280;39663;45.432;28.050;2023-01-31T02:12:57;100622.58;;;2.56;43.29
52291;BME280;39663;45.432;28.050;2023-01-31T02:13:30;100623.47;;;2.69;44.45
52291;BME280;39663;45.432;28.050;2023-01-31T02:14:06;100622.15;;;2.76;41.52
52291;BME280;39663;45.432;28.050;2023-01-31T02:14:39;100622.70;;;2.04;42.76
52291;BME280;39663;45.432;28.050;2023-01-31T02:15:12;100620.90;;;1.93;42.17
52291;BME280;39663;45.432;28.050;2023-01-31T02:15:43;100622.49;;;2.27;43.87
52291;BME280;39663;45.432;28.050;2023-01-31T02:16:15;100619.10;;;1.99;43.37
52291;BME280;39663;45.432;28.050;2023-01-31T02:16:47;100620.19;;;1.40;42.78
52291;BME280;39663;45.432;28.050;2023-01-31T02:17:18;100624.00;;;0.61;44.31
52291;BME280;39663;45.432;28.050;2023-01-31T02:17:51;100621.21;;;1.36;45.80
52291;BME280;39663;45.432;28.050;2023-01-31T02:18:24;100621.08;;;2.00;44.65
52291;BME280;39663;45.432;28.050;2023-01-31T02:18:56;100620.62;;;1.72;43.46
52291;BME280;39663;45.432;28.050;2023-01-31T02:19:34;100624.32;;;0.69;44.13
52291;BME280;39663;45.432;28.050;2023-01-31T02:20:29;100621.38;;;1.26;43.49
52291;BME280;39663;45.432;28.050;2023-01-31T02:21:23;100619.53;;;1.20;43.55
52291;BME280;39663;45.432;28.050;2023-01-31T02:22:13;100619.49;;;1.33;43.82
52291;BME280;39663;45.432;28.050;2023-01-31T02:22:59;100617.94;;;1.38;43.53
52291;BME280;39663;45.432;28.050;2023-01-31T02:24:02;100624.26;;;-0.35;45.86
52291;BME280;39663;45.432;28.050;2023-01-31T02:25:32;100617.23;;;1.23;46.62
52291;BME280;39663;45.432;28.050;2023-01-31T02:26:46;100616.92;;;1.26;44.01
52291;BME280;39663;45.432;28.050;2023-01-31T02:27:42;100618.48;;;1.99;46.66
52291;BME280;39663;45.432;28.050;2023-01-31T02:29:12;100616.36;;;1.87;43.68
52291;BME280;39663;45.432;28.050;2023-01-31T02:30:13;100613.70;;;2.48;43.87
52291;BME280;39663;45.432;28.050;2023-01-31T02:31:43;100614.73;;;2.71;43.59
52291;BME280;39663;45.432;28.050;2023-01-31T02:32:34;100617.67;;;2.87;43.39
52291;BME280;39663;45.432;28.050;2023-01-31T02:33:15;100618.71;;;3.07;42.99
52291;BME280;39663;45.432;28.050;2023-01-31T02:33:56;100619.56;;;3.03;41.82
52291;BME280;39663;45.432;28.050;2023-01-31T02:34:36;100618.73;;;3.11;41.94
52291;BME280;39663;45.432;28.050;2023-01-31T02:35:20;100621.37;;;2.98;43.59
52291;BME280;39663;45.432;28.050;2023-01-31T02:36:03;100619.41;;;1.94;42.57
52291;BME280;39663;45.432;28.050;2023-01-31T02:36:49;100619.92;;;2.42;44.74
52291;BME280;39663;45.432;28.050;2023-01-31T02:37:31;100617.05;;;2.65;42.92
52291;BME280;39663;45.432;28.050;2023-01-31T02:38:16;100616.24;;;2.23;42.30
52291;BME280;39663;45.432;28.050;2023-01-31T02:38:59;100613.53;;;2.69;44.25
52291;BME280;39663;45.432;28.050;2023-01-31T02:39:40;100612.66;;;2.67;44.03
52291;BME280;39663;45.432;28.050;2023-01-31T02:40:18;100616.21;;;2.52;43.33
52291;BME280;39663;45.432;28.050;2023-01-31T02:41:00;100612.74;;;2.73;41.42
52291;BME280;39663;45.432;28.050;2023-01-31T02:41:42;100618.20;;;2.33;42.96
52291;BME280;39663;45.432;28.050;2023-01-31T02:42:26;100617.41;;;2.48;42.54
52291;BME280;39663;45.432;28.050;2023-01-31T02:43:06;100618.78;;;2.44;42.83
52291;BME280;39663;45.432;28.050;2023-01-31T02:43:45;100619.37;;;2.54;44.63
52291;BME280;39663;45.432;28.050;2023-01-31T02:44:26;100617.67;;;2.44;43.83
52291;BME280;39663;45.432;28.050;2023-01-31T02:45:07;100617.03;;;1.74;43.13
52291;BME280;39663;45.432;28.050;2023-01-31T02:45:46;100622.58;;;0.72;45.24
52291;BME280;39663;45.432;28.050;2023-01-31T02:46:23;100623.32;;;0.69;46.11
52291;BME280;39663;45.432;28.050;2023-01-31T02:47:01;100621.20;;;1.53;46.25
52291;BME280;39663;45.432;28.050;2023-01-31T02:47:50;100619.76;;;2.42;45.68
52291;BME280;39663;45.432;28.050;2023-01-31T02:48:32;100621.16;;;2.12;43.15
52291;BME280;39663;45.432;28.050;2023-01-31T02:49:10;100621.02;;;2.27;43.30
52291;BME280;39663;45.432;28.050;2023-01-31T02:49:47;100618.36;;;1.85;43.71
52291;BME280;39663;45.432;28.050;2023-01-31T02:50:25;100621.46;;;1.41;44.30
52291;BME280;39663;45.432;28.050;2023-01-31T02:51:00;100625.65;;;-0.14;46.40
52291;BME280;39663;45.432;28.050;2023-01-31T02:51:37;100630.03;;;-0.37;47.19
52291;BME280;39663;45.432;28.050;2023-01-31T02:52:17;100627.25;;;-0.14;46.87
52291;BME280;39663;45.432;28.050;2023-01-31T02:52:57;100627.86;;;0.22;47.52
52291;BME280;39663;45.432;28.050;2023-01-31T02:53:32;100629.48;;;1.04;46.23
52291;BME280;39663;45.432;28.050;2023-01-31T02:54:08;100629.53;;;0.15;46.74
52291;BME280;39663;45.432;28.050;2023-01-31T02:54:50;100623.78;;;1.08;45.78
52291;BME280;39663;45.432;28.050;2023-01-31T02:55:27;100624.91;;;1.31;44.51
52291;BME280;39663;45.432;28.050;2023-01-31T02:56:04;100626.22;;;1.61;44.62
52291;BME280;39663;45.432;28.050;2023-01-31T02:56:39;100625.94;;;2.08;43.85
52291;BME280;39663;45.432;28.050;2023-01-31T02:57:11;100625.23;;;1.82;44.18
52291;BME280;39663;45.432;28.050;2023-01-31T02:57:44;100624.11;;;1.33;44.39
52291;BME280;39663;45.432;28.050;2023-01-31T02:58:19;100624.00;;;1.81;44.35
52291;BME280;39663;45.432;28.050;2023-01-31T02:58:55;100626.04;;;1.80;45.18
52291;BME280;39663;45.432;28.050;2023-01-31T02:59:28;100624.90;;;1.51;44.80
52291;BME280;39663;45.432;28.050;2023-01-31T03:00:00;100627.62;;;1.04;45.25
52291;BME280;39663;45.432;28.050;2023-01-31T03:00:33;100626.40;;;0.49;46.23
52291;BME280;39663;45.432;28.050;2023-01-31T03:01:11;100625.65;;;1.11;46.09
52291;BME280;39663;45.432;28.050;2023-01-31T03:01:45;100623.96;;;1.32;45.13
52291;BME280;39663;45.432;28.050;2023-01-31T03:02:17;100623.78;;;1.28;45.12
52291;BME280;39663;45.432;28.050;2023-01-31T03:02:50;100626.20;;;1.24;46.95
52291;BME280;39663;45.432;28.050;2023-01-31T03:03:24;100625.17;;;1.58;47.35
52291;BME280;39663;45.432;28.050;2023-01-31T03:03:58;100624.68;;;1.62;45.72
52291;BME280;39663;45.432;28.050;2023-01-31T03:04:33;100626.60;;;0.95;45.55
52291;BME280;39663;45.432;28.050;2023-01-31T03:05:05;100631.13;;;-0.12;47.64
52291;BME280;39663;45.432;28.050;2023-01-31T03:05:37;100630.96;;;-0.12;48.09
52291;BME280;39663;45.432;28.050;2023-01-31T03:06:39;100629.06;;;-0.14;47.84
52291;BME280;39663;45.432;28.050;2023-01-31T03:07:16;100628.98;;;-0.25;48.20
52291;BME280;39663;45.432;28.050;2023-01-31T03:07:53;100633.06;;;-0.82;49.25
52291;BME280;39663;45.432;28.050;2023-01-31T03:08:25;100630.47;;;-0.08;48.61
52291;BME280;39663;45.432;28.050;2023-01-31T03:09:03;100627.45;;;0.53;49.43
52291;BME280;39663;45.432;28.050;2023-01-31T03:09:40;100627.79;;;1.16;49.61
52291;BME280;39663;45.432;28.050;2023-01-31T03:10:32;100624.03;;;1.39;47.14
52291;BME280;39663;45.432;28.050;2023-01-31T03:11:10;100628.69;;;1.12;45.71
52291;BME280;39663;45.432;28.050;2023-01-31T03:11:47;100624.85;;;1.27;45.53